Time;durP1;ratioP1;P1;durP2;ratioP2;P2;SDS_P1;SDS_P2;PMS_P1;PMS_P2;Temp;Humidity;BMP_temperature;BMP_pressure;BME280_temperature;BME280_humidity;BME280_pressure;Samples;Min_cycle;Max_cycle;Signal;HPM_P1;HPM_P2
2021/11/12 00:12:33;;;;;;;88.27;34.40;;;;;;;;;;5077065;27;20558;-59
2021/11/12 00:15:04;;;;;;;97.25;32.15;;;;;;;;;;5083874;27;20067;-59
2021/11/12 00:17:33;;;;;;;94.38;32.60;;;;;;;;;;5064569;28;20060;-60
2021/11/12 00:20:01;;;;;;;89.78;32.47;;;;;;;;;;5077770;28;20134;-59
2021/11/12 00:22:27;;;;;;;87.75;32.50;;;;;;;;;;5076862;27;20066;-59
2021/11/12 00:24:59;;;;;;;92.85;34.42;;;;;;;;;;5075018;28;20020;-60
2021/11/12 00:27:25;;;;;;;85.43;32.78;;;;;;;;;;5076393;28;21115;-59
2021/11/12 00:30:37;;;;;;;98.38;33.70;;;;;;;;;;5060211;28;20028;-59
2021/11/12 00:33:55;;;;;;;88.53;33.38;;;;;;;;;;5071681;28;20043;-60
2021/11/12 00:35:47;;;;;;;84.82;32.85;;;;;;;;;;5062542;28;20050;-59
2021/11/12 00:38:19;;;;;;;92.50;33.00;;;;;;;;;;5077965;28;20049;-60
2021/11/12 00:41:13;;;;;;;93.45;32.72;;;;;;;;;;5079004;27;20117;-59
2021/11/12 00:43:44;;;;;;;93.13;32.65;;;;;;;;;;5077747;27;20031;-59
2021/11/12 00:46:34;;;;;;;93.95;31.98;;;;;;;;;;5076519;28;20035;-59
2021/11/12 00:49:09;;;;;;;95.13;34.13;;;;;;;;;;5093016;27;20031;-60
2021/11/12 00:54:10;;;;;;;80.03;32.75;;;;;;;;;;5077511;28;20979;-60
2021/11/12 00:56:38;;;;;;;85.75;33.03;;;;;;;;;;5084831;28;20031;-59
2021/11/12 00:59:05;;;;;;;80.65;32.88;;;;;;;;;;5074713;28;20047;-60
2021/11/12 01:01:32;;;;;;;86.03;33.92;;;;;;;;;;5076551;28;20028;-59
2021/11/12 01:03:57;;;;;;;81.95;32.25;;;;;;;;;;5091003;27;20024;-60
2021/11/12 01:06:24;;;;;;;91.10;32.97;;;;;;;;;;5077074;28;22008;-60
2021/11/12 01:08:50;;;;;;;93.60;33.95;;;;;;;;;;5076903;28;20043;-60
2021/11/12 01:11:19;;;;;;;83.72;33.30;;;;;;;;;;5076295;28;20468;-60
2021/11/12 01:13:46;;;;;;;78.47;32.92;;;;;;;;;;5078399;28;20511;-60
2021/11/12 01:16:14;;;;;;;96.22;32.53;;;;;;;;;;5076754;28;22094;-60
2021/11/12 01:18:39;;;;;;;85.05;33.90;;;;;;;;;;5076366;28;21093;-59
2021/11/12 01:21:06;;;;;;;97.68;35.92;;;;;;;;;;5066818;28;20036;-59
2021/11/12 01:23:33;;;;;;;83.18;33.78;;;;;;;;;;5077956;28;20065;-60
2021/11/12 01:25:59;;;;;;;91.10;33.90;;;;;;;;;;5080947;27;20043;-59
2021/11/12 01:28:28;;;;;;;91.75;32.63;;;;;;;;;;5079307;28;20031;-60
2021/11/12 01:30:54;;;;;;;83.60;32.55;;;;;;;;;;5077847;28;20069;-59
2021/11/12 01:33:21;;;;;;;96.20;33.15;;;;;;;;;;5078904;28;20028;-60
2021/11/12 01:35:49;;;;;;;91.00;34.78;;;;;;;;;;5079544;28;20046;-60
2021/11/12 01:38:15;;;;;;;98.05;35.30;;;;;;;;;;5078565;27;20027;-60
2021/11/12 01:40:41;;;;;;;97.55;34.00;;;;;;;;;;5096858;27;20054;-60
2021/11/12 01:43:12;;;;;;;94.13;35.13;;;;;;;;;;5081252;28;20028;-59
2021/11/12 01:53:34;;;;;;;92.70;33.13;;;;;;;;;;5079552;28;20935;-59
2021/11/12 01:56:59;;;;;;;89.72;34.58;;;;;;;;;;5063883;28;20044;-59
2021/11/12 02:01:30;;;;;;;91.65;34.15;;;;;;;;;;5077423;28;20042;-59
2021/11/12 02:03:55;;;;;;;82.63;33.67;;;;;;;;;;5061282;28;20072;-60
2021/11/12 02:06:23;;;;;;;96.07;31.73;;;;;;;;;;5080149;28;20662;-60
2021/11/12 02:09:27;;;;;;;91.88;32.90;;;;;;;;;;5063369;28;20032;-60
2021/11/12 02:11:54;;;;;;;81.43;32.17;;;;;;;;;;5080752;27;20043;-59
2021/11/12 02:14:22;;;;;;;99.10;34.25;;;;;;;;;;5066433;28;20031;-59
2021/11/12 02:17:00;;;;;;;101.20;34.47;;;;;;;;;;5081161;28;20063;-59
2021/11/12 02:19:29;;;;;;;89.68;33.10;;;;;;;;;;5078335;28;20031;-59
2021/11/12 02:22:04;;;;;;;84.30;32.30;;;;;;;;;;5079585;28;20562;-61
2021/11/12 02:24:35;;;;;;;82.65;31.33;;;;;;;;;;5086373;28;20066;-59
2021/11/12 02:27:01;;;;;;;79.38;31.23;;;;;;;;;;5078585;27;20031;-60
2021/11/12 02:29:31;;;;;;;90.47;32.53;;;;;;;;;;5075513;28;20028;-60
2021/11/12 02:32:04;;;;;;;85.57;32.20;;;;;;;;;;5077245;28;20047;-59
2021/11/12 02:34:29;;;;;;;90.28;33.58;;;;;;;;;;5096368;27;20968;-59
2021/11/12 02:37:00;;;;;;;84.28;32.55;;;;;;;;;;5064975;28;20402;-61
2021/11/12 02:39:32;;;;;;;88.35;32.65;;;;;;;;;;5077690;28;20050;-60
2021/11/12 02:41:57;;;;;;;86.43;31.25;;;;;;;;;;5077034;27;20368;-61
2021/11/12 02:44:29;;;;;;;82.97;31.88;;;;;;;;;;5078806;27;20031;-59
2021/11/12 02:46:55;;;;;;;76.63;31.77;;;;;;;;;;5062832;28;20458;-60
2021/11/12 02:49:20;;;;;;;79.90;31.83;;;;;;;;;;5064654;28;20048;-60
2021/11/12 02:51:48;;;;;;;82.70;31.70;;;;;;;;;;5078951;27;20027;-60
2021/11/12 02:54:22;;;;;;;82.65;33.25;;;;;;;;;;5077332;28;20031;-61
2021/11/12 02:56:53;;;;;;;79.68;32.25;;;;;;;;;;5079308;28;20523;-60
2021/11/12 02:59:23;;;;;;;89.72;31.30;;;;;;;;;;5063664;28;20031;-60
2021/11/12 03:01:49;;;;;;;82.90;31.55;;;;;;;;;;5079723;28;20032;-60
2021/11/12 03:04:15;;;;;;;77.80;31.25;;;;;;;;;;5077348;28;21132;-60
2021/11/12 03:06:46;;;;;;;73.00;29.92;;;;;;;;;;5079064;28;20047;-59
2021/11/12 03:09:25;;;;;;;82.85;31.30;;;;;;;;;;5066795;28;20038;-59
2021/11/12 03:11:57;;;;;;;77.30;29.73;;;;;;;;;;5076268;28;20497;-61
2021/11/12 03:14:25;;;;;;;71.93;28.63;;;;;;;;;;5077622;28;20031;-60
2021/11/12 03:16:53;;;;;;;76.35;29.90;;;;;;;;;;5078534;27;20028;-60
2021/11/12 03:19:24;;;;;;;77.53;29.50;;;;;;;;;;5076759;28;20036;-60
2021/11/12 03:21:56;;;;;;;67.78;29.25;;;;;;;;;;5076447;28;20218;-60
2021/11/12 03:24:27;;;;;;;79.25;30.48;;;;;;;;;;5076332;27;20024;-59
2021/11/12 03:27:10;;;;;;;69.47;29.17;;;;;;;;;;5062439;28;20040;-60
2021/11/12 03:30:02;;;;;;;77.20;30.00;;;;;;;;;;5076897;28;20051;-61
2021/11/12 05:44:21;;;;;;;80.05;28.83;;;;;;;;;;5074988;28;20791;-60
2021/11/12 05:57:38;;;;;;;82.25;28.90;;;;;;;;;;5073256;28;20162;-60
2021/11/12 06:00:06;;;;;;;70.68;27.55;;;;;;;;;;5073212;28;20032;-60
2021/11/12 06:02:33;;;;;;;80.55;29.23;;;;;;;;;;5074377;28;20023;-60
2021/11/12 06:04:59;;;;;;;74.00;28.50;;;;;;;;;;5062306;28;21045;-59
2021/11/12 06:07:28;;;;;;;81.18;29.35;;;;;;;;;;5075293;28;20070;-62
2021/11/12 06:09:53;;;;;;;82.20;30.90;;;;;;;;;;5058964;28;20496;-62
2021/11/12 06:12:22;;;;;;;77.93;30.45;;;;;;;;;;5079120;28;20039;-61
2021/11/12 06:14:52;;;;;;;87.80;29.70;;;;;;;;;;5068159;28;20906;-59
2021/11/12 06:17:18;;;;;;;85.75;32.80;;;;;;;;;;5087764;27;20043;-60
2021/11/12 06:19:43;;;;;;;87.05;31.08;;;;;;;;;;5078571;27;20026;-61
2021/11/12 06:22:11;;;;;;;81.65;31.52;;;;;;;;;;5060854;28;20138;-59
2021/11/12 06:24:39;;;;;;;76.93;30.58;;;;;;;;;;5077489;28;20028;-61
2021/11/12 06:27:07;;;;;;;77.65;30.27;;;;;;;;;;5049785;28;20150;-59
2021/11/12 06:29:32;;;;;;;87.32;32.08;;;;;;;;;;5080438;28;20743;-60
2021/11/12 06:31:58;;;;;;;86.63;30.33;;;;;;;;;;5079626;28;20131;-60
2021/11/12 06:34:23;;;;;;;84.20;30.75;;;;;;;;;;5076034;28;20043;-60
2021/11/12 06:36:50;;;;;;;85.75;32.58;;;;;;;;;;5085235;28;20122;-60
2021/11/12 06:39:16;;;;;;;77.97;30.85;;;;;;;;;;5063404;28;20054;-60
2021/11/12 06:49:48;;;;;;;83.97;32.05;;;;;;;;;;5076422;28;20027;-60
2021/11/12 06:52:14;;;;;;;83.18;31.40;;;;;;;;;;5076913;27;20058;-59
2021/11/12 06:54:44;;;;;;;86.65;32.38;;;;;;;;;;5079346;28;20107;-59
2021/11/12 06:57:10;;;;;;;87.18;33.78;;;;;;;;;;5078100;28;20036;-59
2021/11/12 06:59:35;;;;;;;94.22;33.60;;;;;;;;;;5071756;27;20042;-59
2021/11/12 07:02:01;;;;;;;89.20;33.42;;;;;;;;;;5072683;27;20040;-59
2021/11/12 07:04:28;;;;;;;95.43;36.67;;;;;;;;;;5070322;28;20027;-59
2021/11/12 07:06:58;;;;;;;87.38;32.92;;;;;;;;;;5059097;28;20031;-59
2021/11/12 07:09:25;;;;;;;85.57;33.28;;;;;;;;;;5070856;28;20032;-59
2021/11/12 07:11:51;;;;;;;84.82;34.97;;;;;;;;;;5077008;27;20138;-59
2021/11/12 07:14:19;;;;;;;88.03;33.03;;;;;;;;;;5077366;28;20042;-60
2021/11/12 07:16:45;;;;;;;84.45;32.38;;;;;;;;;;5082499;28;20024;-59
2021/11/12 07:19:10;;;;;;;92.20;33.08;;;;;;;;;;5066184;28;20105;-59
2021/11/12 07:21:35;;;;;;;76.90;33.58;;;;;;;;;;5079302;28;21077;-59
2021/11/12 07:24:04;;;;;;;83.80;33.90;;;;;;;;;;5076517;28;20047;-59
2021/11/12 07:26:32;;;;;;;83.03;31.20;;;;;;;;;;5076875;28;20043;-59
2021/11/12 07:29:02;;;;;;;81.25;30.83;;;;;;;;;;5078962;28;20028;-60
2021/11/12 07:31:31;;;;;;;74.13;29.80;;;;;;;;;;5076933;27;20028;-61
2021/11/12 07:34:00;;;;;;;76.78;30.25;;;;;;;;;;5076722;28;20146;-60
2021/11/12 07:36:40;;;;;;;80.88;31.52;;;;;;;;;;5076249;28;20062;-61
2021/11/12 07:42:05;;;;;;;86.30;31.37;;;;;;;;;;5084605;28;20522;-61
2021/11/12 07:44:53;;;;;;;72.93;29.30;;;;;;;;;;5075236;27;20085;-61
2021/11/12 07:47:20;;;;;;;80.95;30.15;;;;;;;;;;5067851;28;20024;-59
2021/11/12 07:49:47;;;;;;;62.55;28.17;;;;;;;;;;5077628;28;20020;-60
2021/11/12 07:52:16;;;;;;;67.55;27.55;;;;;;;;;;5075604;28;20039;-61
2021/11/12 07:54:45;;;;;;;67.88;28.15;;;;;;;;;;5069421;28;20577;-60
2021/11/12 07:57:11;;;;;;;72.00;26.80;;;;;;;;;;5078361;28;20118;-59
2021/11/12 07:59:38;;;;;;;76.40;28.45;;;;;;;;;;5075863;28;20114;-58
2021/11/12 08:02:06;;;;;;;65.07;27.20;;;;;;;;;;5060825;28;20031;-61
2021/11/12 08:04:32;;;;;;;62.92;26.27;;;;;;;;;;5082251;27;20020;-58
2021/11/12 08:06:59;;;;;;;59.67;25.80;;;;;;;;;;5079976;27;20047;-60
2021/11/12 08:09:28;;;;;;;59.08;25.33;;;;;;;;;;5076683;28;20070;-59
2021/11/12 08:11:58;;;;;;;56.70;23.48;;;;;;;;;;5066046;28;20047;-62
2021/11/12 08:17:41;;;;;;;51.80;22.65;;;;;;;;;;5079018;28;20050;-59
2021/11/12 08:22:41;;;;;;;48.55;23.40;;;;;;;;;;5080326;28;20032;-59
2021/11/12 08:41:12;;;;;;;34.33;17.15;;;;;;;;;;5077269;28;20498;-60
2021/11/12 08:43:46;;;;;;;39.33;17.75;;;;;;;;;;5072949;28;20055;-63
2021/11/12 08:46:23;;;;;;;32.95;16.65;;;;;;;;;;5076190;28;20871;-60
2021/11/12 08:48:58;;;;;;;36.67;15.88;;;;;;;;;;5075454;28;20490;-61
2021/11/12 08:51:32;;;;;;;32.58;15.30;;;;;;;;;;5077158;28;20051;-59
2021/11/12 08:54:01;;;;;;;32.28;14.40;;;;;;;;;;5064815;28;20421;-59
2021/11/12 08:56:31;;;;;;;37.47;15.40;;;;;;;;;;5077859;28;20043;-61
2021/11/12 08:59:00;;;;;;;38.20;15.35;;;;;;;;;;5074686;28;20062;-59
2021/11/12 09:01:25;;;;;;;35.10;13.85;;;;;;;;;;5075748;28;20683;-59
2021/11/12 09:03:53;;;;;;;23.23;12.95;;;;;;;;;;5074274;28;20058;-60
2021/11/12 09:06:21;;;;;;;30.38;12.88;;;;;;;;;;5074051;28;20035;-61
2021/11/12 09:08:46;;;;;;;31.15;13.40;;;;;;;;;;5082277;28;20032;-60
2021/11/12 09:11:14;;;;;;;26.27;13.35;;;;;;;;;;5073297;28;20112;-61
2021/11/12 09:13:48;;;;;;;32.75;13.15;;;;;;;;;;5082138;28;20511;-60
2021/11/12 09:16:18;;;;;;;26.10;12.77;;;;;;;;;;5075905;28;20206;-60
2021/11/12 09:18:52;;;;;;;31.67;13.45;;;;;;;;;;5057520;28;20032;-61
2021/11/12 09:21:18;;;;;;;28.80;14.00;;;;;;;;;;5077520;28;20036;-60
2021/11/12 09:23:48;;;;;;;30.75;14.60;;;;;;;;;;5063593;28;20027;-61
2021/11/12 09:26:16;;;;;;;29.00;14.23;;;;;;;;;;5079315;28;20169;-61
2021/11/12 09:28:42;;;;;;;35.38;14.90;;;;;;;;;;5073604;28;20110;-61
2021/11/12 09:31:09;;;;;;;28.77;13.90;;;;;;;;;;5084607;28;20043;-61
2021/11/12 09:33:35;;;;;;;28.40;14.25;;;;;;;;;;5075206;28;20040;-61
2021/11/12 09:36:06;;;;;;;31.58;14.20;;;;;;;;;;5077996;28;20028;-60
2021/11/12 09:38:34;;;;;;;27.92;12.80;;;;;;;;;;5082034;28;20019;-60
2021/11/12 09:41:00;;;;;;;33.90;13.38;;;;;;;;;;5062040;28;20067;-60
2021/11/12 09:43:28;;;;;;;29.55;12.77;;;;;;;;;;5067181;28;21039;-60
2021/11/12 09:45:55;;;;;;;27.05;12.65;;;;;;;;;;5066207;28;20527;-60
2021/11/12 09:48:21;;;;;;;21.80;10.07;;;;;;;;;;5053992;28;20409;-60
2021/11/12 09:50:47;;;;;;;23.02;10.15;;;;;;;;;;5060814;28;20026;-60
2021/11/12 09:53:12;;;;;;;21.45;10.20;;;;;;;;;;5064316;28;20027;-60
2021/11/12 09:55:39;;;;;;;21.05;9.82;;;;;;;;;;5082351;27;20036;-60
2021/11/12 09:58:05;;;;;;;18.58;9.38;;;;;;;;;;5079590;28;20080;-59
2021/11/12 10:00:34;;;;;;;19.52;8.65;;;;;;;;;;5081027;27;20484;-61
2021/11/12 10:03:02;;;;;;;23.23;11.00;;;;;;;;;;5080405;27;20047;-61
2021/11/12 10:05:47;;;;;;;23.83;10.07;;;;;;;;;;5088687;27;20019;-60
2021/11/12 10:08:29;;;;;;;16.67;8.77;;;;;;;;;;5079122;27;20077;-61
2021/11/12 10:11:00;;;;;;;18.92;9.23;;;;;;;;;;5079639;27;20039;-60
2021/11/12 10:13:33;;;;;;;27.02;8.77;;;;;;;;;;5081241;28;21961;-63
2021/11/12 10:16:14;;;;;;;16.30;8.82;;;;;;;;;;5081325;28;20027;-61
2021/11/12 10:19:00;;;;;;;20.80;9.15;;;;;;;;;;5080392;28;20032;-59
2021/11/12 10:21:30;;;;;;;18.60;8.35;;;;;;;;;;5079763;28;20098;-61
2021/11/12 10:24:00;;;;;;;15.45;8.25;;;;;;;;;;5080365;28;20076;-61
2021/11/12 10:26:32;;;;;;;17.10;8.57;;;;;;;;;;5087089;28;20098;-60
2021/11/12 10:29:24;;;;;;;16.98;8.85;;;;;;;;;;5080023;27;20122;-60
2021/11/12 10:31:51;;;;;;;19.25;9.07;;;;;;;;;;5079161;27;21039;-60
2021/11/12 10:34:21;;;;;;;15.63;8.23;;;;;;;;;;5078058;27;20154;-61
2021/11/12 10:36:52;;;;;;;14.43;7.47;;;;;;;;;;5077702;28;20154;-61
2021/11/12 10:39:28;;;;;;;15.40;7.22;;;;;;;;;;5080802;28;20493;-61
2021/11/12 10:41:55;;;;;;;14.80;7.47;;;;;;;;;;5080636;28;20023;-62
2021/11/12 10:44:22;;;;;;;11.38;7.28;;;;;;;;;;5078689;27;20027;-60
2021/11/12 10:46:48;;;;;;;15.00;7.63;;;;;;;;;;5070121;28;20035;-60
2021/11/12 10:49:22;;;;;;;17.55;7.97;;;;;;;;;;5079008;28;20144;-60
2021/11/12 10:51:52;;;;;;;15.90;7.35;;;;;;;;;;5079611;28;20055;-60
2021/11/12 10:54:52;;;;;;;17.70;7.43;;;;;;;;;;5078422;28;20027;-61
2021/11/12 10:57:21;;;;;;;14.30;7.45;;;;;;;;;;5075168;28;20063;-61
2021/11/12 10:59:55;;;;;;;12.65;6.57;;;;;;;;;;5076839;28;20914;-60
2021/11/12 11:02:22;;;;;;;;;;;;;;;;;;5079912;28;20028;-61
2021/11/12 11:04:47;;;;;;;12.80;6.53;;;;;;;;;;5078613;28;19920;-60
2021/11/12 11:07:16;;;;;;;18.58;8.35;;;;;;;;;;5077355;27;20060;-61
2021/11/12 11:09:42;;;;;;;17.58;7.30;;;;;;;;;;5080364;27;20047;-62
2021/11/12 11:12:07;;;;;;;14.85;6.93;;;;;;;;;;5069418;28;20122;-60
2021/11/12 11:14:33;;;;;;;15.55;7.93;;;;;;;;;;5079476;28;20095;-61
2021/11/12 11:17:18;;;;;;;17.92;7.32;;;;;;;;;;5067219;28;20040;-61
2021/11/12 11:19:47;;;;;;;14.98;7.47;;;;;;;;;;5077812;28;20562;-61
2021/11/12 11:22:15;;;;;;;10.57;7.00;;;;;;;;;;5079327;28;20105;-61
2021/11/12 11:24:43;;;;;;;16.40;7.22;;;;;;;;;;5068647;28;20032;-61
2021/11/12 11:27:11;;;;;;;12.40;6.18;;;;;;;;;;5079386;28;20035;-60
2021/11/12 11:29:37;;;;;;;15.40;6.57;;;;;;;;;;5075081;28;20040;-60
2021/11/12 11:32:07;;;;;;;16.90;7.30;;;;;;;;;;5080121;27;20028;-60
2021/11/12 11:34:34;;;;;;;12.90;7.18;;;;;;;;;;5079988;28;20043;-60
2021/11/12 11:37:03;;;;;;;14.10;6.90;;;;;;;;;;5066450;28;20030;-62
2021/11/12 11:39:31;;;;;;;11.18;7.25;;;;;;;;;;5094119;27;20028;-61
2021/11/12 11:41:57;;;;;;;16.33;8.13;;;;;;;;;;5079757;28;20020;-61
2021/11/12 11:44:23;;;;;;;13.60;7.85;;;;;;;;;;5078217;27;20031;-62
2021/11/12 11:46:53;;;;;;;14.40;7.70;;;;;;;;;;5079321;27;20086;-61
2021/11/12 11:49:23;;;;;;;14.13;7.00;;;;;;;;;;5076226;27;20032;-61
2021/11/12 11:51:54;;;;;;;14.13;8.05;;;;;;;;;;5078037;27;20054;-62
2021/11/12 11:54:21;;;;;;;17.98;8.35;;;;;;;;;;5084099;27;20047;-61
2021/11/12 11:56:51;;;;;;;13.13;8.20;;;;;;;;;;5078803;27;20043;-60
2021/11/12 11:59:24;;;;;;;17.42;8.70;;;;;;;;;;5076382;28;20039;-60
2021/11/12 12:01:53;;;;;;;16.73;8.35;;;;;;;;;;5093181;27;20141;-61
2021/11/12 12:04:30;;;;;;;14.75;8.43;;;;;;;;;;5077959;28;20400;-61
2021/11/12 12:07:01;;;;;;;18.30;8.90;;;;;;;;;;5076211;28;20043;-60
2021/11/12 12:09:45;;;;;;;20.23;10.38;;;;;;;;;;5078419;27;20109;-61
2021/11/12 12:12:13;;;;;;;28.13;10.48;;;;;;;;;;5078901;27;20047;-61
2021/11/12 12:14:39;;;;;;;24.98;10.40;;;;;;;;;;5076043;28;20024;-60
2021/11/12 12:17:13;;;;;;;22.00;11.07;;;;;;;;;;5077633;28;22104;-60
2021/11/12 12:20:03;;;;;;;21.30;9.80;;;;;;;;;;5076472;27;20027;-60
2021/11/12 13:22:02;;;;;;;31.77;14.02;;;;;;;;;;5076547;28;20028;-59
2021/11/12 13:24:36;;;;;;;31.83;14.07;;;;;;;;;;5082002;28;20024;-60
2021/11/12 13:27:06;;;;;;;30.80;14.93;;;;;;;;;;5082830;28;20043;-60
2021/11/12 13:29:32;;;;;;;34.50;14.63;;;;;;;;;;5077541;28;21199;-61
2021/11/12 13:32:02;;;;;;;28.00;14.60;;;;;;;;;;5063408;28;20032;-60
2021/11/12 13:34:29;;;;;;;32.88;14.13;;;;;;;;;;5077964;28;20047;-61
2021/11/12 13:37:00;;;;;;;34.22;15.30;;;;;;;;;;5076218;28;20038;-60
2021/11/12 13:39:29;;;;;;;32.28;15.68;;;;;;;;;;5076492;28;20146;-61
2021/11/12 13:41:59;;;;;;;32.92;15.57;;;;;;;;;;5077927;28;20445;-60
2021/11/12 13:44:35;;;;;;;30.45;14.75;;;;;;;;;;5076368;28;20055;-61
2021/11/12 13:47:08;;;;;;;33.90;15.15;;;;;;;;;;5093562;27;20056;-61
2021/11/12 13:49:38;;;;;;;30.98;14.45;;;;;;;;;;5077822;28;20475;-60
2021/11/12 13:52:06;;;;;;;34.38;14.45;;;;;;;;;;5075847;28;20039;-61
2021/11/12 13:54:37;;;;;;;38.95;16.67;;;;;;;;;;5076967;28;20024;-61
2021/11/12 13:57:06;;;;;;;32.35;16.08;;;;;;;;;;5084661;28;20669;-60
2021/11/12 13:59:47;;;;;;;36.15;16.15;;;;;;;;;;5074622;28;20028;-61
2021/11/12 14:02:15;;;;;;;37.30;16.40;;;;;;;;;;5078506;28;20027;-61
2021/11/12 14:04:46;;;;;;;42.00;17.58;;;;;;;;;;5074473;28;20024;-62
2021/11/12 14:07:22;;;;;;;44.50;18.33;;;;;;;;;;5075631;28;20031;-61
2021/11/12 14:10:03;;;;;;;41.60;19.30;;;;;;;;;;5074819;28;20036;-61
2021/11/12 14:12:36;;;;;;;42.22;19.17;;;;;;;;;;5073024;28;20027;-61
2021/11/12 14:15:03;;;;;;;47.85;19.52;;;;;;;;;;5075704;28;20036;-59
2021/11/12 14:17:32;;;;;;;41.63;18.27;;;;;;;;;;5060369;28;20038;-61
2021/11/12 14:20:50;;;;;;;49.58;20.77;;;;;;;;;;5072376;28;20051;-60
2021/11/12 14:23:19;;;;;;;49.60;20.13;;;;;;;;;;5071201;28;20170;-61
2021/11/12 14:31:15;;;;;;;49.00;19.60;;;;;;;;;;5072556;28;20066;-61
2021/11/12 14:36:47;;;;;;;50.72;21.40;;;;;;;;;;5079852;28;20108;-61
2021/11/12 14:39:41;;;;;;;52.17;21.95;;;;;;;;;;5076500;28;20073;-61
2021/11/12 14:48:11;;;;;;;54.15;22.25;;;;;;;;;;5063055;28;22099;-61
2021/11/12 14:50:57;;;;;;;60.88;22.38;;;;;;;;;;5064347;28;20024;-61
2021/11/12 14:53:51;;;;;;;56.53;22.00;;;;;;;;;;5078373;28;20908;-60
2021/11/12 14:58:53;;;;;;;57.80;22.38;;;;;;;;;;5075371;28;21067;-60
2021/11/12 15:01:21;;;;;;;53.90;23.05;;;;;;;;;;5071721;28;20035;-61
2021/11/12 15:03:50;;;;;;;62.38;23.60;;;;;;;;;;5079776;28;20020;-61
2021/11/12 15:06:20;;;;;;;64.13;24.35;;;;;;;;;;5077587;28;20042;-61
2021/11/12 15:09:04;;;;;;;63.33;24.27;;;;;;;;;;5073834;27;20028;-62
2021/11/12 15:11:35;;;;;;;57.47;23.70;;;;;;;;;;5076065;27;20632;-61
2021/11/12 15:14:11;;;;;;;52.28;21.95;;;;;;;;;;5074610;28;20748;-61
2021/11/12 15:16:38;;;;;;;62.67;22.92;;;;;;;;;;5058160;28;20035;-60
2021/11/12 15:19:05;;;;;;;59.42;24.05;;;;;;;;;;5075544;28;20577;-61
2021/11/12 15:21:48;;;;;;;64.47;25.38;;;;;;;;;;5077387;28;20069;-61
2021/11/12 15:34:04;;;;;;;64.70;25.92;;;;;;;;;;5074385;28;20032;-61
2021/11/12 15:36:43;;;;;;;70.65;25.33;;;;;;;;;;5079955;27;20052;-62
2021/11/12 15:39:14;;;;;;;65.60;26.42;;;;;;;;;;5075059;27;20035;-62
2021/11/12 15:44:28;;;;;;;64.47;25.75;;;;;;;;;;5074645;28;20020;-62
2021/11/12 15:49:43;;;;;;;72.78;27.83;;;;;;;;;;5075093;28;20036;-61
2021/11/12 15:52:18;;;;;;;64.30;24.55;;;;;;;;;;5075294;28;20039;-62
2021/11/12 16:15:49;;;;;;;69.55;26.08;;;;;;;;;;5073334;28;20052;-61
2021/11/12 16:18:49;;;;;;;69.32;26.73;;;;;;;;;;5080655;28;20190;-60
2021/11/12 16:21:17;;;;;;;69.30;27.77;;;;;;;;;;5072923;28;20071;-60
2021/11/12 16:26:22;;;;;;;74.95;27.10;;;;;;;;;;5075751;27;20063;-61
2021/11/12 16:31:34;;;;;;;69.05;26.35;;;;;;;;;;5076447;27;20032;-60
2021/11/12 16:34:05;;;;;;;75.95;25.65;;;;;;;;;;5073836;27;20043;-60
2021/11/12 16:36:33;;;;;;;66.05;25.30;;;;;;;;;;5075716;28;20043;-60
2021/11/12 16:39:06;;;;;;;76.90;25.90;;;;;;;;;;5076227;27;20039;-60
2021/11/12 16:41:38;;;;;;;;;;;;;;;;;;5080928;27;20036;-60
2021/11/12 16:44:16;;;;;;;77.53;27.48;;;;;;;;;;5075827;28;19912;-61
2021/11/12 16:47:06;;;;;;;76.25;29.83;;;;;;;;;;5060190;28;20035;-60
2021/11/12 16:49:38;;;;;;;73.97;26.60;;;;;;;;;;5070798;28;20040;-60
2021/11/12 16:52:18;;;;;;;73.07;27.35;;;;;;;;;;5073973;28;20035;-60
2021/11/12 17:03:17;;;;;;;73.45;26.58;;;;;;;;;;5059420;28;20106;-60
2021/11/12 17:48:37;;;;;;;72.05;26.35;;;;;;;;;;5073188;28;20031;-60
2021/11/12 18:18:39;;;;;;;58.05;22.40;;;;;;;;;;5076065;28;20035;-59
2021/11/12 21:48:31;;;;;;;54.20;19.48;;;;;;;;;;5079652;27;20047;-60
2021/11/12 21:51:01;;;;;;;42.75;18.33;;;;;;;;;;5091801;27;21099;-60
2021/11/12 21:53:27;;;;;;;45.03;18.52;;;;;;;;;;5079528;28;21873;-60
2021/11/12 21:55:56;;;;;;;47.80;19.00;;;;;;;;;;5079560;28;20040;-60
2021/11/12 21:58:25;;;;;;;44.97;18.58;;;;;;;;;;5079341;28;20032;-61
2021/11/12 22:00:54;;;;;;;49.67;18.10;;;;;;;;;;5082744;28;20034;-58
2021/11/12 22:03:23;;;;;;;48.10;17.90;;;;;;;;;;5079612;27;20085;-60
2021/11/12 22:05:51;;;;;;;42.33;17.45;;;;;;;;;;5085541;27;20678;-60
2021/11/12 22:08:18;;;;;;;43.05;17.60;;;;;;;;;;5077854;28;20040;-59
2021/11/12 22:10:49;;;;;;;46.95;17.88;;;;;;;;;;5077563;28;20028;-59
2021/11/12 22:13:49;;;;;;;45.63;18.90;;;;;;;;;;5082524;28;20074;-60
2021/11/12 22:16:21;;;;;;;57.65;19.70;;;;;;;;;;5075826;28;20032;-60
2021/11/12 22:18:49;;;;;;;39.60;18.50;;;;;;;;;;5079230;28;20036;-61
2021/11/12 22:21:17;;;;;;;54.97;19.75;;;;;;;;;;5078632;28;20498;-59
2021/11/12 22:23:45;;;;;;;48.88;18.27;;;;;;;;;;5079222;28;20032;-60
2021/11/12 22:26:11;;;;;;;42.00;17.45;;;;;;;;;;5077548;27;20036;-60
2021/11/12 22:28:44;;;;;;;44.40;17.63;;;;;;;;;;5080798;27;20118;-60
2021/11/12 22:31:12;;;;;;;54.38;19.15;;;;;;;;;;5080836;27;20032;-61
2021/11/12 22:33:40;;;;;;;53.95;19.38;;;;;;;;;;5079211;28;20036;-59
2021/11/12 22:36:08;;;;;;;51.92;19.85;;;;;;;;;;5079291;27;20778;-59
2021/11/12 22:38:37;;;;;;;47.05;19.75;;;;;;;;;;5080676;27;22053;-61
2021/11/12 22:41:04;;;;;;;52.05;19.25;;;;;;;;;;5078417;28;20147;-58
2021/11/12 22:43:31;;;;;;;57.42;19.92;;;;;;;;;;5080269;28;20026;-57
2021/11/12 22:45:59;;;;;;;49.67;18.48;;;;;;;;;;5079738;28;20085;-57
2021/11/12 22:48:25;;;;;;;39.63;18.35;;;;;;;;;;5075940;28;20084;-57
2021/11/12 22:50:50;;;;;;;54.75;19.10;;;;;;;;;;5081794;27;20036;-58
2021/11/12 22:53:18;;;;;;;44.63;18.00;;;;;;;;;;5076733;27;20130;-57
2021/11/12 22:55:44;;;;;;;48.00;19.48;;;;;;;;;;5079426;28;20046;-55
2021/11/12 22:58:10;;;;;;;50.58;19.50;;;;;;;;;;5094864;27;20064;-58
2021/11/12 23:00:55;;;;;;;48.90;19.30;;;;;;;;;;5077649;28;20042;-58
2021/11/12 23:03:23;;;;;;;54.38;19.02;;;;;;;;;;5077780;28;20035;-56
2021/11/12 23:05:51;;;;;;;48.40;18.42;;;;;;;;;;5079816;28;20576;-57
2021/11/12 23:08:21;;;;;;;52.97;20.95;;;;;;;;;;5078517;28;20028;-57
2021/11/12 23:10:50;;;;;;;49.10;18.48;;;;;;;;;;5060046;28;20035;-59
2021/11/12 23:13:20;;;;;;;41.25;18.40;;;;;;;;;;5077903;28;20054;-57
2021/11/12 23:15:48;;;;;;;44.58;17.25;;;;;;;;;;5066665;28;20165;-58
2021/11/12 23:18:13;;;;;;;53.55;18.00;;;;;;;;;;5079519;28;20043;-55
2021/11/12 23:20:39;;;;;;;48.55;19.05;;;;;;;;;;5081930;28;20044;-57
2021/11/12 23:23:05;;;;;;;51.22;20.83;;;;;;;;;;5077434;28;20055;-56
2021/11/12 23:25:33;;;;;;;52.90;19.08;;;;;;;;;;5080100;28;20788;-55
2021/11/12 23:27:59;;;;;;;45.30;19.20;;;;;;;;;;5080609;28;20593;-57
2021/11/12 23:30:27;;;;;;;52.72;21.00;;;;;;;;;;5078706;28;20044;-57
2021/11/12 23:32:52;;;;;;;49.22;18.63;;;;;;;;;;5077405;28;20540;-56
2021/11/12 23:35:18;;;;;;;56.30;21.02;;;;;;;;;;5078623;28;20028;-57
2021/11/12 23:37:45;;;;;;;54.20;17.80;;;;;;;;;;5083662;28;20046;-57
2021/11/12 23:40:11;;;;;;;49.08;18.92;;;;;;;;;;5076802;28;20031;-58
2021/11/12 23:42:37;;;;;;;45.85;17.73;;;;;;;;;;5080347;28;20058;-56
2021/11/12 23:45:03;;;;;;;50.85;18.40;;;;;;;;;;5092910;27;21989;-58
2021/11/12 23:47:29;;;;;;;46.85;19.38;;;;;;;;;;5079415;28;20097;-58
2021/11/12 23:49:56;;;;;;;42.25;17.80;;;;;;;;;;5076815;28;20040;-58
2021/11/12 23:52:24;;;;;;;53.15;19.30;;;;;;;;;;5079232;28;20036;-58
2021/11/12 23:54:51;;;;;;;46.97;19.10;;;;;;;;;;5076852;28;20043;-58
2021/11/12 23:57:18;;;;;;;46.13;19.73;;;;;;;;;;5027978;28;20045;-58
2021/11/12 23:59:49;;;;;;;46.60;19.67;;;;;;;;;;5037605;28;20508;-58
